Insight — WDJ7275 — position and weather

sailwx.info

Track history (hours):
 
Tides and Currents Weather Stations Pressure Air Temp Water Temp Dewpoint Dewpoint Depression Visibility Wind Speed Wind Dir Waves Ship Positions

Insight

Owner: Freudenstein, Alan H, New York, NY. More information available from US FCC via Universal Licensing System and Coast Guard Vessel Documentation Center.

Last reported at 2018-Jul-22 08:27 UTC. Time now 2018-Jul-22 08:46 UTC.
Position N 25°48' W 080°09'.

Length 12 m.

Type: Pleasure craft. MMSI: 368005130.

Date/timePositionNaut miles runAvg speedWind from/ knotsBaromVisibWave heightAir tempDewpointWater temp
2018-Jul-22 08:27N 25°48' W 080°09'0 0.0
2018-Jul-22 07:54N 25°48' W 080°09'0 0.0
2018-Jul-22 07:30N 25°48' W 080°09'0 0.0
2018-Jul-22 07:00N 25°48' W 080°09'0 0.0
2018-Jul-22 06:27N 25°48' W 080°09'0 0.0
2018-Jul-22 06:00N 25°48' W 080°09'0 0.0
2018-Jul-22 05:30N 25°48' W 080°09'0 0.0
2018-Jul-22 05:00N 25°48' W 080°09'0 0.0
2018-Jul-22 04:30N 25°48' W 080°09'0 0.0
2018-Jul-22 04:00N 25°48' W 080°09'0 0.0
2018-Jul-22 02:54N 25°48' W 080°09'0 0.0
2018-Jul-22 02:15N 25°48' W 080°09'0 0.0
2018-Jul-22 02:00N 25°48' W 080°09'0 0.0
2018-Jul-22 01:15N 25°48' W 080°09'0 0.0
2018-Jul-22 00:59N 25°48' W 080°09'0 0.0
2018-Jul-21 23:36N 25°48' W 080°09'0 0.0
2018-Jul-21 23:24N 25°48' W 080°09'0 0.0
2018-Jul-21 22:45N 25°48' W 080°09'0 1.9
2018-Jul-21 22:30N 25°47' W 080°09'7 5.1
2018-Jul-21 21:12N 25°54' W 080°07'418.6
2018-Jul-21 20:58N 25°58' W 080°06'5 6.2
2018-Jul-21 20:10N 26°03' W 080°07'1 7.4
2018-Jul-21 19:59N 26°01' W 080°07'1 0.5
2018-Jul-21 18:51N 26°01' W 080°07'0 0.2
2018-Jul-21 18:30N 26°01' W 080°07'4 7.0
2018-Jul-21 18:00N 25°57' W 080°08'813.3
2018-Jul-21 17:21N 25°49' W 080°06'3 2.5
2018-Jul-21 16:19N 25°48' W 080°09'0 0.0
2018-Jul-21 15:52N 25°48' W 080°09'0 0.0
2018-Jul-21 15:13N 25°48' W 080°09'0 0.0
2018-Jul-21 14:58N 25°48' W 080°09'0 0.0
2018-Jul-21 14:22N 25°48' W 080°09'0 0.0
2018-Jul-21 13:28N 25°48' W 080°09'0 0.0
2018-Jul-21 12:58N 25°48' W 080°09'0 0.0
2018-Jul-21 12:28N 25°48' W 080°09'0 0.0
2018-Jul-21 11:57N 25°48' W 080°09'0 0.0
2018-Jul-21 11:30N 25°48' W 080°09'0 0.0
2018-Jul-21 11:00N 25°48' W 080°09'0 0.0
2018-Jul-21 10:27N 25°48' W 080°09'0 0.0
2018-Jul-21 09:59N 25°48' W 080°09'0 0.0
2018-Jul-21 09:22N 25°48' W 080°09'0 0.0
2018-Jul-21 08:57N 25°48' W 080°09'0 0.0
2018-Jul-21 08:21N 25°48' W 080°09'0 0.0
2018-Jul-21 08:00N 25°48' W 080°09'0 0.0
2018-Jul-21 07:30N 25°48' W 080°09'0 0.0
2018-Jul-21 07:00N 25°48' W 080°09'0 0.0
2018-Jul-21 06:20N 25°48' W 080°09'0 0.0
2018-Jul-21 05:50N 25°48' W 080°09'0 0.0
2018-Jul-21 05:23N 25°48' W 080°09'0 0.0
2018-Jul-21 04:50N 25°48' W 080°09'0 0.0
2018-Jul-21 04:29N 25°48' W 080°09'0 0.0
2018-Jul-21 03:50N 25°48' W 080°09'0 0.0
2018-Jul-21 03:28N 25°48' W 080°09'0 0.0
2018-Jul-21 02:52N 25°48' W 080°09'0 0.0
2018-Jul-21 02:28N 25°48' W 080°09'0 0.0
2018-Jul-21 01:55N 25°48' W 080°09'0 0.0
2018-Jul-21 01:22N 25°48' W 080°09'0 0.0
2018-Jul-21 00:58N 25°48' W 080°09'0 0.0
2018-Jul-21 00:28N 25°48' W 080°09'0 0.0
2018-Jul-20 23:55N 25°48' W 080°09'0 0.0
2018-Jul-20 23:28N 25°48' W 080°09'0 0.0
2018-Jul-20 22:58N 25°48' W 080°09'0 0.0
2018-Jul-20 22:28N 25°48' W 080°09'0 0.0
2018-Jul-20 21:58N 25°48' W 080°09'0 0.0
2018-Jul-20 21:22N 25°48' W 080°09'0 0.0
2018-Jul-20 20:58N 25°48' W 080°09'0 0.0
2018-Jul-20 20:28N 25°48' W 080°09'0 0.0
2018-Jul-20 20:00N 25°48' W 080°09'0 0.0
2018-Jul-20 19:30N 25°48' W 080°09'0 0.0
2018-Jul-20 18:48N 25°48' W 080°09'0 0.0
2018-Jul-20 18:30N 25°48' W 080°09'0 0.0
2018-Jul-20 17:51N 25°48' W 080°09'0 0.0
2018-Jul-20 17:30N 25°48' W 080°09'0 0.0
2018-Jul-20 17:00N 25°48' W 080°09'0 0.0
2018-Jul-20 16:06N 25°48' W 080°09'0 0.0
2018-Jul-20 16:00N 25°48' W 080°09'0 0.0
2018-Jul-20 15:24N 25°48' W 080°09'0 0.0
2018-Jul-20 15:00N 25°48' W 080°09'0 0.0
2018-Jul-20 14:24N 25°48' W 080°09'0 0.0
2018-Jul-20 14:00N 25°48' W 080°09'0 0.0
2018-Jul-20 13:30N 25°48' W 080°09'0 0.0
2018-Jul-20 12:39N 25°48' W 080°09'0 0.0
2018-Jul-20 12:30N 25°48' W 080°09'0 0.0
2018-Jul-20 11:56N 25°48' W 080°09'0 0.0
2018-Jul-20 11:30N 25°48' W 080°09'0 0.0
2018-Jul-20 10:51N 25°48' W 080°09'0 0.0
2018-Jul-20 10:30N 25°48' W 080°09'0 0.0
2018-Jul-20 09:51N 25°48' W 080°09'0 0.0
2018-Jul-20 09:30N 25°48' W 080°09'0 0.0
2018-Jul-20 08:54N 25°48' W 080°09'0 0.0
2018-Jul-20 08:27N 25°48' W 080°09'0 0.0
2018-Jul-20 07:54N 25°48' W 080°09'0 0.0
2018-Jul-20 07:30N 25°48' W 080°09'0 0.0
2018-Jul-20 06:48N 25°48' W 080°09'0 0.0
2018-Jul-20 06:30N 25°48' W 080°09'0 0.0
2018-Jul-20 05:42N 25°48' W 080°09'0 0.0
2018-Jul-20 05:30N 25°48' W 080°09'0 0.0
2018-Jul-20 05:00N 25°48' W 080°09'0 0.0
2018-Jul-20 03:36N 25°48' W 080°09'0 0.0
2018-Jul-20 03:24N 25°48' W 080°09'0 0.0
2018-Jul-20 02:18N 25°48' W 080°09'0 0.0
2018-Jul-20 00:36N 25°48' W 080°09'0 0.0
2018-Jul-20 00:24N 25°48' W 080°09'0 0.0
2018-Jul-20 00:00N 25°48' W 080°09'0 0.0
2018-Jul-19 23:15N 25°48' W 080°09'0 0.0
2018-Jul-19 22:00N 25°48' W 080°09'0 0.2
2018-Jul-19 21:30N 25°48' W 080°09'4 6.9
2018-Jul-19 20:58N 25°51' W 080°09'  
2018-Jul-15 20:44N 25°55' W 080°07'1 3.3
2018-Jul-15 20:25N 25°54' W 080°07'0 0.2
2018-Jul-15 19:57N 25°54' W 080°08'4 7.2
2018-Jul-15 19:23N 25°58' W 080°07'3 5.2
2018-Jul-15 18:48N 26°01' W 080°07'0 0.0
2018-Jul-15 18:30N 26°01' W 080°07'0 0.0
2018-Jul-15 18:00N 26°01' W 080°07'7 0.3
2018-Jul-14 17:30N 26°08' W 080°07'1 0.1
2018-Jul-14 00:13N 26°07' W 080°06'0 0.0
2018-Jul-13 01:17N 26°07' W 080°06'0 0.0
2018-Jul-13 00:11N 26°07' W 080°06'0 0.0
2018-Jul-12 23:56N 26°07' W 080°06'0 0.0
2018-Jul-12 23:29N 26°07' W 080°06'1 0.2
2018-Jul-12 17:36N 26°06' W 080°07'427.8
2018-Jul-12 17:26N 26°02' W 080°06'815.8
2018-Jul-12 16:58N 25°54' W 080°08'1 1.4
2018-Jul-12 16:23N 25°55' W 080°07'  
Track history (hours):
 
Tides and Currents Weather Stations Pressure Air Temp Water Temp Dewpoint Dewpoint Depression Visibility Wind Speed Wind Dir Waves Ship Positions

Insight

Owner: Freudenstein, Alan H, New York, NY. More information available from US FCC via Universal Licensing System and Coast Guard Vessel Documentation Center.

Last reported at 2018-Jul-22 08:27 UTC. Time now 2018-Jul-22 08:46 UTC.
Position N 25°48' W 080°09'.

Length 12 m.

Type: Pleasure craft. MMSI: 368005130.

Date/timePositionNaut miles runAvg speedWind from/ knotsBaromVisibWave heightAir tempDewpointWater temp
2018-Jul-22 08:27N 25°48' W 080°09'0 0.0
2018-Jul-22 07:54N 25°48' W 080°09'0 0.0
2018-Jul-22 07:30N 25°48' W 080°09'0 0.0
2018-Jul-22 07:00N 25°48' W 080°09'0 0.0
2018-Jul-22 06:27N 25°48' W 080°09'0 0.0
2018-Jul-22 06:00N 25°48' W 080°09'0 0.0
2018-Jul-22 05:30N 25°48' W 080°09'0 0.0
2018-Jul-22 05:00N 25°48' W 080°09'0 0.0
2018-Jul-22 04:30N 25°48' W 080°09'0 0.0
2018-Jul-22 04:00N 25°48' W 080°09'0 0.0
2018-Jul-22 02:54N 25°48' W 080°09'0 0.0
2018-Jul-22 02:15N 25°48' W 080°09'0 0.0
2018-Jul-22 02:00N 25°48' W 080°09'0 0.0
2018-Jul-22 01:15N 25°48' W 080°09'0 0.0
2018-Jul-22 00:59N 25°48' W 080°09'0 0.0
2018-Jul-21 23:36N 25°48' W 080°09'0 0.0
2018-Jul-21 23:24N 25°48' W 080°09'0 0.0
2018-Jul-21 22:45N 25°48' W 080°09'0 1.9
2018-Jul-21 22:30N 25°47' W 080°09'7 5.1
2018-Jul-21 21:12N 25°54' W 080°07'418.6
2018-Jul-21 20:58N 25°58' W 080°06'5 6.2
2018-Jul-21 20:10N 26°03' W 080°07'1 7.4
2018-Jul-21 19:59N 26°01' W 080°07'1 0.5
2018-Jul-21 18:51N 26°01' W 080°07'0 0.2
2018-Jul-21 18:30N 26°01' W 080°07'4 7.0
2018-Jul-21 18:00N 25°57' W 080°08'813.3
2018-Jul-21 17:21N 25°49' W 080°06'3 2.5
2018-Jul-21 16:19N 25°48' W 080°09'0 0.0
2018-Jul-21 15:52N 25°48' W 080°09'0 0.0
2018-Jul-21 15:13N 25°48' W 080°09'0 0.0
2018-Jul-21 14:58N 25°48' W 080°09'0 0.0
2018-Jul-21 14:22N 25°48' W 080°09'0 0.0
2018-Jul-21 13:28N 25°48' W 080°09'0 0.0
2018-Jul-21 12:58N 25°48' W 080°09'0 0.0
2018-Jul-21 12:28N 25°48' W 080°09'0 0.0
2018-Jul-21 11:57N 25°48' W 080°09'0 0.0
2018-Jul-21 11:30N 25°48' W 080°09'0 0.0
2018-Jul-21 11:00N 25°48' W 080°09'0 0.0
2018-Jul-21 10:27N 25°48' W 080°09'0 0.0
2018-Jul-21 09:59N 25°48' W 080°09'0 0.0
2018-Jul-21 09:22N 25°48' W 080°09'0 0.0
2018-Jul-21 08:57N 25°48' W 080°09'0 0.0
2018-Jul-21 08:21N 25°48' W 080°09'0 0.0
2018-Jul-21 08:00N 25°48' W 080°09'0 0.0
2018-Jul-21 07:30N 25°48' W 080°09'0 0.0
2018-Jul-21 07:00N 25°48' W 080°09'0 0.0
2018-Jul-21 06:20N 25°48' W 080°09'0 0.0
2018-Jul-21 05:50N 25°48' W 080°09'0 0.0
2018-Jul-21 05:23N 25°48' W 080°09'0 0.0
2018-Jul-21 04:50N 25°48' W 080°09'0 0.0
2018-Jul-21 04:29N 25°48' W 080°09'0 0.0
2018-Jul-21 03:50N 25°48' W 080°09'0 0.0
2018-Jul-21 03:28N 25°48' W 080°09'0 0.0
2018-Jul-21 02:52N 25°48' W 080°09'0 0.0
2018-Jul-21 02:28N 25°48' W 080°09'0 0.0
2018-Jul-21 01:55N 25°48' W 080°09'0 0.0
2018-Jul-21 01:22N 25°48' W 080°09'0 0.0
2018-Jul-21 00:58N 25°48' W 080°09'0 0.0
2018-Jul-21 00:28N 25°48' W 080°09'0 0.0
2018-Jul-20 23:55N 25°48' W 080°09'0 0.0
2018-Jul-20 23:28N 25°48' W 080°09'0 0.0
2018-Jul-20 22:58N 25°48' W 080°09'0 0.0
2018-Jul-20 22:28N 25°48' W 080°09'0 0.0
2018-Jul-20 21:58N 25°48' W 080°09'0 0.0
2018-Jul-20 21:22N 25°48' W 080°09'0 0.0
2018-Jul-20 20:58N 25°48' W 080°09'0 0.0
2018-Jul-20 20:28N 25°48' W 080°09'0 0.0
2018-Jul-20 20:00N 25°48' W 080°09'0 0.0
2018-Jul-20 19:30N 25°48' W 080°09'0 0.0
2018-Jul-20 18:48N 25°48' W 080°09'0 0.0
2018-Jul-20 18:30N 25°48' W 080°09'0 0.0
2018-Jul-20 17:51N 25°48' W 080°09'0 0.0
2018-Jul-20 17:30N 25°48' W 080°09'0 0.0
2018-Jul-20 17:00N 25°48' W 080°09'0 0.0
2018-Jul-20 16:06N 25°48' W 080°09'0 0.0
2018-Jul-20 16:00N 25°48' W 080°09'0 0.0
2018-Jul-20 15:24N 25°48' W 080°09'0 0.0
2018-Jul-20 15:00N 25°48' W 080°09'0 0.0
2018-Jul-20 14:24N 25°48' W 080°09'0 0.0
2018-Jul-20 14:00N 25°48' W 080°09'0 0.0
2018-Jul-20 13:30N 25°48' W 080°09'0 0.0
2018-Jul-20 12:39N 25°48' W 080°09'0 0.0
2018-Jul-20 12:30N 25°48' W 080°09'0 0.0
2018-Jul-20 11:56N 25°48' W 080°09'0 0.0
2018-Jul-20 11:30N 25°48' W 080°09'0 0.0
2018-Jul-20 10:51N 25°48' W 080°09'0 0.0
2018-Jul-20 10:30N 25°48' W 080°09'0 0.0
2018-Jul-20 09:51N 25°48' W 080°09'0 0.0
2018-Jul-20 09:30N 25°48' W 080°09'0 0.0
2018-Jul-20 08:54N 25°48' W 080°09'0 0.0
2018-Jul-20 08:27N 25°48' W 080°09'0 0.0
2018-Jul-20 07:54N 25°48' W 080°09'0 0.0
2018-Jul-20 07:30N 25°48' W 080°09'0 0.0
2018-Jul-20 06:48N 25°48' W 080°09'0 0.0
2018-Jul-20 06:30N 25°48' W 080°09'0 0.0
2018-Jul-20 05:42N 25°48' W 080°09'0 0.0
2018-Jul-20 05:30N 25°48' W 080°09'0 0.0
2018-Jul-20 05:00N 25°48' W 080°09'0 0.0
2018-Jul-20 03:36N 25°48' W 080°09'0 0.0
2018-Jul-20 03:24N 25°48' W 080°09'0 0.0
2018-Jul-20 02:18N 25°48' W 080°09'0 0.0
2018-Jul-20 00:36N 25°48' W 080°09'0 0.0
2018-Jul-20 00:24N 25°48' W 080°09'0 0.0
2018-Jul-20 00:00N 25°48' W 080°09'0 0.0
2018-Jul-19 23:15N 25°48' W 080°09'0 0.0
2018-Jul-19 22:00N 25°48' W 080°09'0 0.2
2018-Jul-19 21:30N 25°48' W 080°09'4 6.9
2018-Jul-19 20:58N 25°51' W 080°09'  
2018-Jul-15 20:44N 25°55' W 080°07'1 3.3
2018-Jul-15 20:25N 25°54' W 080°07'0 0.2
2018-Jul-15 19:57N 25°54' W 080°08'4 7.2
2018-Jul-15 19:23N 25°58' W 080°07'3 5.2
2018-Jul-15 18:48N 26°01' W 080°07'0 0.0
2018-Jul-15 18:30N 26°01' W 080°07'0 0.0
2018-Jul-15 18:00N 26°01' W 080°07'7 0.3
2018-Jul-14 17:30N 26°08' W 080°07'1 0.1
2018-Jul-14 00:13N 26°07' W 080°06'0 0.0
2018-Jul-13 01:17N 26°07' W 080°06'0 0.0
2018-Jul-13 00:11N 26°07' W 080°06'0 0.0
2018-Jul-12 23:56N 26°07' W 080°06'0 0.0
2018-Jul-12 23:29N 26°07' W 080°06'1 0.2
2018-Jul-12 17:36N 26°06' W 080°07'427.8
2018-Jul-12 17:26N 26°02' W 080°06'815.8
2018-Jul-12 16:58N 25°54' W 080°08'1 1.4
2018-Jul-12 16:23N 25°55' W 080°07'  

Dump ship's entire track history